West Olive, MI (49460)

9:34 AM EDT on October 31, 2014 (GMT -0400)
Lake Front at M-45 Kiteboard Station | Change Station
CLOSE
Current Station
Personal Weather Station
Location: Grand Haven, MI
Elevation: 585 ft
Nearby Weather Stations
Active Advisory: Wind Advisory

Elev 585 ft 42.97 °N, 86.22 °W | Updated 5 seconds ago

Mostly Cloudy
Mostly Cloudy
40.2 °F
Feels Like 40 °F
N
0.0
Wind Variable Wind from North
Gusts 33.0 mph

Today
High -- | Low -- °F
--% Chance of Precip.
Yesterday
High -- | Low -- °F
Precip. -- in
8:17 AM 6:37 PM
First Quarter, 55% visible
Pressure 29.95 in
Visibility 10.0 miles
Clouds Few 1500 ft
Overcast 3800 ft
Windchill 40 °F
Dew Point 35 °F
Humidity 82%
Rainfall 0.07 in
Snow Depth Not available.
UV 0 out of 12
Pollen .10 out of 12
Air Quality Not available.
Flu Activity Not available.
SPECI KBIV 311308Z AUTO 32003KT 10SM -RA FEW015 OVC038 04/02 A2995 RMK AO2 P0000 T00440017

More Conditions Fewer Conditions

Pressure 29.95 in
Visibility 10.0 miles
Clouds Few 1500 ft
Overcast 3800 ft
Windchill 40 °F
Dew Point 35 °F
Humidity 82%
Rainfall 0.07 in
Snow Depth Not available.
UV 0 out of 12
Pollen .10 out of 12
Air Quality Not available.
Flu Activity Not available.
SPECI KBIV 311308Z AUTO 32003KT 10SM -RA FEW015 OVC038 04/02 A2995 RMK AO2 P0000 T00440017

More Conditions Fewer Conditions

10-Day Weather Forecast

Almanac

Astronomy

Oct. 31, 2014 Rise Set
Actual Time
Civil Twilight
Nautical Twilight
Astronomical Twilight
Moon
Length of Visible Light
Length of Day
Tomorrow will be .
, % of the Moon is Illuminated

Today's Extremes

State Highs State Lows

Community

WunderPhotos

Upload Photos

1,766,610 photos uploaded!

WunderBlogs® & News

Nearby

Air Quality

  Air Quality AQ Index Pollutant
Not available.

Snow Depth

Station Depth Elevation

Earthquake Activity

City Distance Mag. Time & Date
Minimum magnitude displayed is 2.5.

Coastal Water Temperatures

Place Temperature

Nearby Weather Stations